イスタンブル の空港の天気 - METARとTAF

アタテュルク国際空港(イスタンブル) ( LTBA / IST ) - トルコ イスタンブル
飛行場実況気象(Metar)
観測時間11/27 11:50 EET (11/27 08:50 UTC)
風向・風速北北東 5m/s
視程10km以上
天気現象
全天の8割程度の雲 雲底高度 1070m
気温11℃
湿度67%
気圧1025hPa
METARLTBA 270850Z 02010KT 350V050 9999 BKN035 11/05 Q1025 RMK RWY23 02011KT 350V050
過去の天気等 Google飛行場航空写真 Wunderground天気予報

過去48時間のMETAR

飛行場予報(TAF)
発表時間: 11/27 07:40 EET (11/27 04:40 UTC)
予報対象時間: 27日9時 EET ~ 28日9時 EET
風向・風速北北東 6m/s
視程10km以上
全天の4割程度の雲 雲底高度 910m
全天の8割程度の雲 雲底高度 3050m
27日9時 EET ~ 27日13時 EET に一時的に
天気現象弱いしゅう雨
全天の8割程度の雲 雲底高度 760m
27日23時 EET ~ 28日2時 EET に徐々に
全天の8割程度の雲 雲底高度 1070m
全天の8割程度の雲 雲底高度 3050m
TAF LTBA 270440Z 2706/2806 03012KT 9999 SCT030 BKN100
TEMPO 2706/2710 -SHRA BKN025
BECMG 2720/2723 BKN035 BKN100